createdAt,value
2018-11-06T00:01:44.250Z,17.50
2018-11-06T00:05:41.064Z,17.60
2018-11-06T00:09:37.810Z,17.60
2018-11-06T00:13:34.730Z,17.60
2018-11-06T00:17:31.591Z,17.70
2018-11-06T00:21:28.384Z,17.70
2018-11-06T00:25:25.137Z,17.70
2018-11-06T00:29:21.918Z,17.70
2018-11-06T00:33:18.602Z,17.70
2018-11-06T00:37:15.442Z,17.70
2018-11-06T00:41:12.084Z,17.70
2018-11-06T00:45:12.604Z,17.70
2018-11-06T00:49:09.551Z,17.80
2018-11-06T00:53:06.708Z,17.80
2018-11-06T00:57:03.389Z,17.70
2018-11-06T01:01:02.775Z,17.70
2018-11-06T01:04:59.647Z,17.80
2018-11-06T01:08:57.457Z,17.70
2018-11-06T01:12:54.447Z,17.70
2018-11-06T01:16:53.013Z,17.70
2018-11-06T01:20:50.651Z,17.80
2018-11-06T01:24:48.987Z,17.70
2018-11-06T01:28:45.664Z,17.70
2018-11-06T01:32:43.372Z,17.60
2018-11-06T01:36:39.994Z,17.50
2018-11-06T01:40:36.269Z,17.50
2018-11-06T01:44:32.928Z,17.40
2018-11-06T01:48:29.504Z,17.40
2018-11-06T01:52:26.311Z,17.40
2018-11-06T01:56:22.988Z,17.40
2018-11-06T02:00:20.257Z,17.30
2018-11-06T02:04:17.066Z,17.40
2018-11-06T02:08:15.107Z,17.30
2018-11-06T02:12:11.605Z,17.30
2018-11-06T02:16:08.659Z,17.30
2018-11-06T02:20:05.285Z,17.30
2018-11-06T02:24:02.031Z,17.30
2018-11-06T02:27:58.646Z,17.30
2018-11-06T02:31:56.031Z,17.20
2018-11-06T02:35:52.553Z,17.20
2018-11-06T02:39:48.884Z,17.20
2018-11-06T02:43:45.163Z,17.20
2018-11-06T02:47:42.808Z,17.20
2018-11-06T02:51:39.840Z,17.20
2018-11-06T02:55:36.829Z,17.20
2018-11-06T02:59:33.785Z,17.20
2018-11-06T03:03:34.509Z,17.20
2018-11-06T03:07:31.102Z,17.20
2018-11-06T03:11:27.866Z,17.20
2018-11-06T03:15:24.538Z,17.20
2018-11-06T03:19:21.568Z,17.20
2018-11-06T03:23:18.278Z,17.20
2018-11-06T03:27:14.859Z,17.20
2018-11-06T03:31:12.371Z,17.20
2018-11-06T03:35:09.761Z,17.20
2018-11-06T03:39:08.632Z,17.10
2018-11-06T03:43:05.061Z,17.10
2018-11-06T03:47:01.817Z,17.10
2018-11-06T03:50:58.445Z,17.10
2018-11-06T03:54:55.045Z,17.10
2018-11-06T03:58:51.569Z,17.10
2018-11-06T04:02:48.266Z,17.10
2018-11-06T04:06:45.076Z,17.10
2018-11-06T04:10:41.627Z,17.10
2018-11-06T04:14:38.358Z,17.10
2018-11-06T04:18:35.049Z,17.10
2018-11-06T04:22:31.645Z,17.10
2018-11-06T04:26:28.310Z,17.10
2018-11-06T04:30:25.190Z,17.10
2018-11-06T04:34:21.712Z,17.10
2018-11-06T04:38:18.365Z,17.10
2018-11-06T04:42:15.046Z,17.10
2018-11-06T04:46:11.918Z,17.10
2018-11-06T04:50:10.427Z,17.10
2018-11-06T04:54:07.242Z,17.10
2018-11-06T04:58:03.784Z,17.00
2018-11-06T05:02:00.494Z,17.00
2018-11-06T05:05:57.161Z,17.00
2018-11-06T05:09:53.481Z,17.10
2018-11-06T05:13:51.047Z,17.10
2018-11-06T05:17:47.773Z,17.00
2018-11-06T05:21:44.699Z,17.10
2018-11-06T05:25:41.460Z,17.00
2018-11-06T05:29:38.949Z,17.00
2018-11-06T05:33:35.877Z,17.00
2018-11-06T05:37:32.369Z,17.00
2018-11-06T05:41:29.158Z,17.00
2018-11-06T05:45:26.185Z,17.00
2018-11-06T05:49:22.907Z,17.00
2018-11-06T05:53:19.576Z,17.00
2018-11-06T05:57:15.784Z,17.00
2018-11-06T06:01:12.401Z,17.00
2018-11-06T06:05:09.172Z,17.00
2018-11-06T06:09:07.943Z,17.00
2018-11-06T06:13:05.102Z,17.00
2018-11-06T06:17:02.309Z,17.00
2018-11-06T06:20:59.084Z,17.00
2018-11-06T06:24:55.941Z,17.00
2018-11-06T06:28:52.375Z,17.00
2018-11-06T06:32:49.012Z,17.00
2018-11-06T06:36:45.322Z,16.90
2018-11-06T06:40:41.867Z,17.00
2018-11-06T06:44:38.484Z,17.00
2018-11-06T06:48:34.899Z,17.00
2018-11-06T06:52:31.967Z,17.00
2018-11-06T06:56:28.986Z,17.00
2018-11-06T07:00:25.893Z,17.00
2018-11-06T07:04:23.192Z,17.00
2018-11-06T07:08:20.037Z,17.00
2018-11-06T07:12:20.768Z,17.00
2018-11-06T07:16:18.644Z,17.00
2018-11-06T07:20:16.688Z,17.00
2018-11-06T07:24:13.925Z,17.00
2018-11-06T07:28:10.663Z,16.90
2018-11-06T07:32:07.471Z,17.00
2018-11-06T07:36:04.171Z,17.00
2018-11-06T07:40:00.644Z,17.00
2018-11-06T07:43:57.440Z,17.00
2018-11-06T07:47:53.851Z,17.00
2018-11-06T07:51:50.460Z,17.00
2018-11-06T07:55:47.424Z,17.00
2018-11-06T07:59:44.190Z,17.00
2018-11-06T08:03:40.609Z,17.00
2018-11-06T08:07:37.645Z,17.00
2018-11-06T08:11:34.448Z,17.00
2018-11-06T08:15:33.119Z,17.10
2018-11-06T08:19:32.546Z,17.00
2018-11-06T08:23:31.294Z,17.10
2018-11-06T08:27:28.073Z,17.10
2018-11-06T08:31:25.267Z,17.10
2018-11-06T08:35:21.859Z,17.10
2018-11-06T08:39:18.905Z,17.10
2018-11-06T08:43:15.932Z,17.10
2018-11-06T08:47:12.710Z,17.10
2018-11-06T08:51:09.609Z,17.10
2018-11-06T08:55:07.954Z,17.20
2018-11-06T08:59:05.001Z,17.30
2018-11-06T09:03:02.522Z,17.40
2018-11-06T09:07:00.173Z,17.30
2018-11-06T09:10:57.147Z,17.40
2018-11-06T09:14:54.060Z,17.50
2018-11-06T09:18:51.050Z,17.50
2018-11-06T09:22:48.461Z,17.60
2018-11-06T09:26:45.408Z,17.70
2018-11-06T09:30:42.296Z,17.70
2018-11-06T09:34:39.561Z,17.80
2018-11-06T09:38:36.488Z,17.80
2018-11-06T09:42:33.782Z,17.90
2018-11-06T09:46:30.644Z,17.90
2018-11-06T09:50:27.505Z,18.00
2018-11-06T09:54:25.244Z,18.00
2018-11-06T09:58:22.212Z,18.00
2018-11-06T10:02:19.727Z,18.00
2018-11-06T10:06:16.802Z,18.00
2018-11-06T10:10:16.640Z,18.00
2018-11-06T10:14:13.544Z,18.00
2018-11-06T10:18:11.109Z,18.00
2018-11-06T10:22:09.924Z,18.00
2018-11-06T10:26:07.566Z,17.90
2018-11-06T10:30:06.634Z,17.90
2018-11-06T10:34:04.028Z,17.90
2018-11-06T10:38:00.970Z,17.90
2018-11-06T10:41:58.062Z,17.90
2018-11-06T10:45:56.232Z,17.90
2018-11-06T10:49:53.525Z,17.90
2018-11-06T10:53:51.134Z,17.90
2018-11-06T10:57:48.488Z,18.00
2018-11-06T11:01:50.913Z,17.90
2018-11-06T11:05:48.286Z,18.00
2018-11-06T11:09:45.023Z,18.00
2018-11-06T11:13:41.702Z,18.00
2018-11-06T11:17:39.067Z,18.00
2018-11-06T11:21:36.781Z,17.90
2018-11-06T11:25:35.892Z,17.90
2018-11-06T11:29:34.850Z,18.00
2018-11-06T11:33:38.547Z,18.00
2018-11-06T11:37:38.792Z,18.10
2018-11-06T11:42:15.804Z,18.10
2018-11-06T11:46:21.388Z,18.20
2018-11-06T11:50:49.852Z,18.20
2018-11-06T11:54:48.375Z,18.30
2018-11-06T11:58:48.568Z,18.40
2018-11-06T12:02:54.494Z,18.60
2018-11-06T12:06:58.534Z,19.50
2018-11-06T12:11:03.067Z,21.20
2018-11-06T12:15:15.633Z,22.40
2018-11-06T12:19:14.555Z,23.20
2018-11-06T12:23:13.917Z,23.40
2018-11-06T12:27:13.434Z,23.60
2018-11-06T12:31:12.518Z,23.40
2018-11-06T12:35:11.748Z,23.30
2018-11-06T12:39:12.267Z,23.40
2018-11-06T12:43:14.908Z,23.10
2018-11-06T12:47:25.034Z,23.30
2018-11-06T12:51:31.456Z,23.00
2018-11-06T12:55:54.082Z,22.90
2018-11-06T12:59:55.690Z,23.20
2018-11-06T13:03:58.482Z,22.90
2018-11-06T13:07:59.824Z,22.60
2018-11-06T13:11:59.468Z,22.60
2018-11-06T13:16:00.067Z,22.70
2018-11-06T13:19:59.836Z,22.80
2018-11-06T13:24:01.141Z,22.70
2018-11-06T13:28:02.098Z,22.80
2018-11-06T13:32:05.367Z,23.00
2018-11-06T13:40:33.735Z,22.90
2018-11-06T13:44:39.731Z,22.70
2018-11-06T13:48:42.739Z,22.50
2018-11-06T13:52:43.876Z,22.40
2018-11-06T13:57:03.421Z,22.10
2018-11-06T14:01:16.836Z,21.90
2018-11-06T14:05:17.594Z,21.70
2018-11-06T14:09:32.323Z,21.70
2018-11-06T14:13:37.839Z,21.60
2018-11-06T14:17:45.970Z,21.40
2018-11-06T14:21:49.604Z,21.20
2018-11-06T14:25:55.340Z,21.00
2018-11-06T14:30:10.167Z,21.00
2018-11-06T14:34:22.161Z,20.80
2018-11-06T14:38:39.390Z,20.90
2018-11-06T14:42:41.761Z,20.80
2018-11-06T14:46:51.812Z,20.70
2018-11-06T14:50:51.445Z,20.70
2018-11-06T14:54:53.331Z,20.60
2018-11-06T14:58:57.223Z,20.60
2018-11-06T15:03:08.327Z,20.50
2018-11-06T15:07:08.331Z,20.50
2018-11-06T15:11:11.671Z,20.50
2018-11-06T15:15:14.738Z,20.40
2018-11-06T15:19:22.912Z,20.40
2018-11-06T15:23:23.833Z,20.30
2018-11-06T15:27:25.471Z,20.40
2018-11-06T15:31:24.403Z,20.30
2018-11-06T15:35:22.664Z,20.30
2018-11-06T15:39:25.050Z,20.30
2018-11-06T15:43:24.621Z,20.20
2018-11-06T15:47:22.348Z,20.20
2018-11-06T15:51:19.638Z,20.20
2018-11-06T15:55:16.628Z,20.20
2018-11-06T15:59:13.637Z,20.20
2018-11-06T16:03:10.882Z,20.10
2018-11-06T16:07:08.735Z,20.10
2018-11-06T16:11:09.236Z,20.00
2018-11-06T16:15:07.128Z,19.80
2018-11-06T16:19:04.351Z,19.80
2018-11-06T16:23:01.596Z,19.70
2018-11-06T16:27:00.282Z,19.80
2018-11-06T16:30:56.861Z,19.80
2018-11-06T16:34:53.662Z,19.80
2018-11-06T16:38:50.706Z,19.80
2018-11-06T16:42:48.533Z,19.80
2018-11-06T16:46:45.906Z,19.80
2018-11-06T16:50:43.434Z,19.70
2018-11-06T16:54:43.617Z,19.60
2018-11-06T16:58:44.536Z,19.60
2018-11-06T17:02:43.133Z,19.60
2018-11-06T17:06:46.800Z,19.60
2018-11-06T17:10:56.137Z,19.60
2018-11-06T17:14:57.138Z,19.60
2018-11-06T17:19:05.546Z,19.70
2018-11-06T17:23:06.858Z,19.70
2018-11-06T17:27:06.223Z,19.70
2018-11-06T17:31:06.160Z,19.70
2018-11-06T17:35:03.740Z,19.80
2018-11-06T17:39:04.287Z,19.90
2018-11-06T17:43:30.030Z,20.00
2018-11-06T17:47:39.061Z,19.90
2018-11-06T17:55:57.831Z,20.00
2018-11-06T18:00:12.996Z,20.00
2018-11-06T18:04:19.414Z,20.00
2018-11-06T18:08:18.285Z,20.00
2018-11-06T18:12:21.903Z,19.90
2018-11-06T18:16:35.277Z,19.80
2018-11-06T18:20:35.129Z,19.80
2018-11-06T18:24:33.020Z,19.90
2018-11-06T18:28:31.414Z,20.00
2018-11-06T18:32:29.861Z,20.10
2018-11-06T18:36:30.947Z,20.00
2018-11-06T18:40:30.282Z,20.00
2018-11-06T18:44:28.547Z,20.00
2018-11-06T18:48:29.543Z,20.00
2018-11-06T18:52:27.070Z,20.00
2018-11-06T18:56:25.612Z,19.90
2018-11-06T19:00:29.208Z,20.00
2018-11-06T19:04:32.737Z,19.90
2018-11-06T19:08:32.005Z,19.90
2018-11-06T19:12:32.640Z,19.90
2018-11-06T19:16:31.822Z,19.90
2018-11-06T19:20:34.859Z,19.90
2018-11-06T19:24:38.417Z,20.00
2018-11-06T19:28:43.625Z,19.90
2018-11-06T19:32:45.416Z,19.90
2018-11-06T19:37:01.594Z,19.80
2018-11-06T19:41:05.157Z,19.80
2018-11-06T19:45:16.436Z,19.80
2018-11-06T19:49:25.493Z,19.80
2018-11-06T19:53:33.194Z,19.90
2018-11-06T19:57:30.465Z,19.80
2018-11-06T20:01:28.370Z,19.80
2018-11-06T20:05:25.844Z,19.80
2018-11-06T20:09:22.706Z,19.90
2018-11-06T20:13:19.705Z,19.80
2018-11-06T20:17:17.104Z,19.80
2018-11-06T20:21:14.470Z,19.70
2018-11-06T20:25:14.936Z,19.70
2018-11-06T20:29:12.895Z,19.70
2018-11-06T20:33:09.992Z,19.70
2018-11-06T20:37:07.061Z,19.60
2018-11-06T20:41:05.077Z,19.40
2018-11-06T20:45:02.592Z,19.30
2018-11-06T20:48:59.680Z,19.20
2018-11-06T20:52:56.508Z,19.20
2018-11-06T20:56:53.154Z,19.10
2018-11-06T21:00:50.167Z,19.10
2018-11-06T21:04:47.097Z,19.10
2018-11-06T21:08:43.852Z,19.00
2018-11-06T21:12:40.345Z,19.00
2018-11-06T21:16:36.950Z,18.90
2018-11-06T21:20:33.786Z,18.90
2018-11-06T21:24:30.469Z,18.90
2018-11-06T21:28:27.213Z,18.80
2018-11-06T21:32:23.913Z,18.80
2018-11-06T21:36:25.639Z,18.80
2018-11-06T21:40:23.127Z,18.80
2018-11-06T21:44:21.536Z,18.80
2018-11-06T21:48:21.148Z,18.80
2018-11-06T21:52:18.713Z,18.80
2018-11-06T21:56:15.681Z,18.70
2018-11-06T22:00:17.295Z,18.70
2018-11-06T22:04:14.033Z,18.70
2018-11-06T22:08:10.939Z,18.70
2018-11-06T22:12:07.867Z,18.70
2018-11-06T22:16:04.547Z,18.70
2018-11-06T22:20:01.402Z,18.70
2018-11-06T22:23:58.460Z,18.60
2018-11-06T22:27:55.479Z,18.60
2018-11-06T22:31:52.402Z,18.60
2018-11-06T22:35:49.279Z,18.60
2018-11-06T22:39:46.615Z,18.60
2018-11-06T22:43:43.470Z,18.60
2018-11-06T22:47:40.275Z,18.60
2018-11-06T22:51:37.269Z,18.50
2018-11-06T22:55:33.905Z,18.60
2018-11-06T22:59:30.957Z,18.50
2018-11-06T23:03:27.837Z,18.50
2018-11-06T23:07:29.457Z,18.60
2018-11-06T23:11:26.264Z,18.60
2018-11-06T23:15:24.441Z,18.50
2018-11-06T23:19:21.285Z,18.50
2018-11-06T23:23:18.256Z,18.50
2018-11-06T23:27:15.028Z,18.50
2018-11-06T23:31:11.865Z,18.50
2018-11-06T23:35:08.884Z,18.50
2018-11-06T23:39:07.737Z,18.50
2018-11-06T23:43:04.688Z,18.50
2018-11-06T23:47:02.371Z,18.40
2018-11-06T23:50:59.026Z,18.40
2018-11-06T23:54:55.975Z,18.40
2018-11-06T23:58:52.902Z,18.50
